Time;durP1;ratioP1;P1;durP2;ratioP2;P2;SDS_P1;SDS_P2;PMS_P1;PMS_P2;Temp;Humidity;BMP_temperature;BMP_pressure;BME280_temperature;BME280_humidity;BME280_pressure;Samples;Min_cycle;Max_cycle;Signal;HPM_P1;HPM_P2
2022/10/27 00:02:53;;;;;;;115.40;59.00;;;;;;;9.81;100.00;101149.20;641216;1295;139652;-80
2022/10/27 00:17:56;;;;;;;115.30;58.50;;;;;;;9.80;100.00;101142.11;640287;1302;139458;-80
2022/10/27 00:32:59;;;;;;;131.50;65.20;;;;;;;9.79;100.00;101142.88;639456;1297;139874;-80
2022/10/27 00:48:02;;;;;;;122.70;62.60;;;;;;;9.80;100.00;101147.58;639107;1286;140318;-80
2022/10/27 01:03:08;;;;;;;123.70;63.70;;;;;;;9.78;100.00;101159.57;640473;1302;139364;-81
2022/10/27 01:18:31;;;;;;;101.10;50.90;;;;;;;9.79;100.00;101158.61;639984;1301;140028;-80
2022/10/27 01:33:54;;;;;;;114.90;57.70;;;;;;;9.89;100.00;101156.91;640679;1302;139491;-81
2022/10/27 01:48:58;;;;;;;127.10;64.70;;;;;;;9.96;100.00;101151.53;641803;1302;140944;-81
2022/10/27 02:11:04;;;;;;;112.80;60.30;;;;;;;9.98;100.00;101147.67;622961;1343;1158271;-80
2022/10/27 02:26:20;;;;;;;117.00;59.60;;;;;;;9.89;100.00;101148.67;632431;1308;138761;-80
2022/10/27 02:41:23;;;;;;;107.40;55.10;;;;;;;9.74;100.00;101143.47;632394;1317;138710;-79
2022/10/27 02:56:26;;;;;;;117.10;57.40;;;;;;;9.64;100.00;101147.96;631617;1314;139117;-79
2022/10/27 03:11:30;;;;;;;110.10;54.60;;;;;;;9.64;100.00;101148.64;634738;1319;138765;-80
2022/10/27 03:26:33;;;;;;;141.10;54.10;;;;;;;9.60;100.00;101148.79;634799;1319;138630;-80
2022/10/27 03:41:39;;;;;;;126.30;51.60;;;;;;;9.60;100.00;101159.42;635270;1303;139238;-80
2022/10/27 03:56:42;;;;;;;116.20;48.80;;;;;;;9.74;100.00;101166.67;639492;1297;139098;-80
2022/10/27 04:11:45;;;;;;;112.20;50.30;;;;;;;9.75;100.00;101173.38;639348;1308;139389;-80
2022/10/27 04:26:49;;;;;;;118.40;49.10;;;;;;;9.75;100.00;101168.89;639650;1304;138829;-80
2022/10/27 04:41:52;;;;;;;92.30;43.60;;;;;;;9.74;100.00;101186.23;639366;1302;139175;-80
2022/10/27 04:56:55;;;;;;;76.20;39.10;;;;;;;9.66;100.00;101175.48;639716;1310;140420;-80
2022/10/27 05:11:58;;;;;;;90.20;41.70;;;;;;;9.49;100.00;101180.59;640502;1309;138796;-80
2022/10/27 05:27:02;;;;;;;84.20;40.40;;;;;;;9.34;100.00;101196.81;639948;1301;138887;-80
2022/10/27 05:42:05;;;;;;;104.20;49.60;;;;;;;9.16;100.00;101212.91;639406;1306;141187;-81
2022/10/27 05:57:08;;;;;;;106.70;51.30;;;;;;;9.09;100.00;101230.67;639536;1310;140665;-81
2022/10/27 06:12:11;;;;;;;108.80;52.80;;;;;;;9.01;100.00;101246.16;639572;1304;140178;-80
2022/10/27 06:27:14;;;;;;;121.90;60.00;;;;;;;9.04;100.00;101254.88;638982;1304;138970;-80
2022/10/27 06:42:18;;;;;;;170.00;78.10;;;;;;;9.46;100.00;101269.89;640831;1294;139475;-81
2022/10/27 06:57:25;;;;;;;63.50;35.60;;;;;;;9.74;100.00;101301.02;640894;1294;140000;-81
2022/10/27 07:12:29;;;;;;;126.70;61.40;;;;;;;9.82;100.00;101294.35;640054;1296;138961;-80
2022/10/27 07:27:32;;;;;;;81.20;42.90;;;;;;;10.71;100.00;101301.61;639875;1305;140153;-80
2022/10/27 07:42:59;;;;;;;76.20;42.90;;;;;;;11.98;100.00;101319.41;642299;1310;139849;-81
2022/10/27 07:58:15;;;;;;;59.90;35.10;;;;;;;12.94;100.00;101315.58;642107;1300;139406;-81
2022/10/27 08:13:18;;;;;;;47.00;29.40;;;;;;;13.82;100.00;101310.25;639742;1284;140404;-82
2022/10/27 08:28:23;;;;;;;42.10;25.40;;;;;;;14.82;100.00;101316.52;640229;1295;139431;-84
2022/10/27 08:43:51;;;;;;;36.40;24.70;;;;;;;15.41;100.00;101326.67;640095;1306;139781;-82
2022/10/27 08:58:54;;;;;;;42.30;27.70;;;;;;;15.68;100.00;101328.11;640531;1292;139101;-82
2022/10/27 09:14:04;;;;;;;48.20;31.60;;;;;;;16.14;100.00;101353.46;640055;1295;139270;-82
2022/10/27 09:29:17;;;;;;;56.40;33.70;;;;;;;16.00;100.00;101361.27;639765;1310;139463;-83
2022/10/27 09:44:23;;;;;;;59.80;34.00;;;;;;;16.09;100.00;101366.63;639692;1294;139173;-83
2022/10/27 10:16:16;;;;;;;53.00;31.60;;;;;;;16.74;100.00;101373.92;639718;1303;140329;-82
2022/10/27 10:31:28;;;;;;;49.20;32.30;;;;;;;17.58;100.00;101370.56;639669;1302;139624;-83
2022/10/27 10:46:33;;;;;;;54.90;33.30;;;;;;;18.91;100.00;101369.11;640301;1305;139428;-82
2022/10/27 11:02:05;;;;;;;40.00;26.20;;;;;;;19.90;97.37;101366.48;640225;1298;139906;-83
2022/10/27 11:17:09;;;;;;;38.90;26.30;;;;;;;20.64;95.98;101362.30;640491;1296;139727;-83
2022/10/27 11:32:19;;;;;;;32.80;21.70;;;;;;;21.12;93.78;101354.58;641388;1311;139294;-84
2022/10/27 11:47:48;;;;;;;24.90;18.80;;;;;;;21.00;88.85;101354.42;640090;1310;139066;-84
2022/10/27 12:02:52;;;;;;;;;;;;;;;20.96;86.32;101360.30;640360;1303;139247;-84
2022/10/27 12:18:03;;;;;;;34.40;20.40;;;;;;;21.33;85.49;101360.33;639948;1298;124967;-84
2022/10/27 12:33:36;;;;;;;22.40;15.40;;;;;;;22.02;84.14;101352.23;641220;1301;139116;-83
2022/10/27 12:48:51;;;;;;;25.10;18.20;;;;;;;22.02;81.29;101347.33;639834;1311;138943;-84
2022/10/27 13:04:22;;;;;;;80.50;33.30;;;;;;;22.55;81.15;101346.59;640097;1310;139005;-84
2022/10/27 13:19:44;;;;;;;34.50;20.20;;;;;;;26.44;74.65;101339.92;639996;1296;139051;-83
2022/10/27 13:35:01;;;;;;;24.50;16.50;;;;;;;26.92;66.55;101351.23;639719;1291;138431;-81
2022/10/27 13:50:32;;;;;;;30.40;18.50;;;;;;;23.68;71.60;101345.09;639799;1290;139207;-83
2022/10/27 14:05:44;;;;;;;31.20;19.00;;;;;;;23.15;76.22;101338.67;640212;1295;139078;-82
2022/10/27 14:20:55;;;;;;;24.30;16.40;;;;;;;22.69;76.99;101340.46;642770;1288;991574;-81
2022/10/27 14:36:14;;;;;;;43.60;24.10;;;;;;;22.32;77.09;101352.27;641134;1297;139682;-81
2022/10/27 14:51:18;;;;;;;45.20;29.80;;;;;;;20.68;80.90;101349.74;640304;1290;139480;-81
2022/10/27 15:06:24;;;;;;;48.50;25.10;;;;;;;19.84;84.14;101362.16;637511;1306;139304;-81
2022/10/27 15:21:28;;;;;;;40.80;25.80;;;;;;;18.52;88.55;101357.10;633250;1308;140460;-82
2022/10/27 15:36:33;;;;;;;37.00;23.50;;;;;;;17.82;91.66;101350.55;632838;1310;139143;-81
2022/10/27 15:51:56;;;;;;;66.50;41.60;;;;;;;17.38;94.30;101355.31;632383;1314;139683;-81
2022/10/27 16:07:12;;;;;;;34.40;22.00;;;;;;;16.95;95.98;101350.48;633723;1320;139937;-81
2022/10/27 16:22:19;;;;;;;31.30;19.80;;;;;;;16.36;96.89;101366.77;637956;1314;139043;-82
2022/10/27 16:37:26;;;;;;;65.70;38.10;;;;;;;15.91;99.02;101366.97;638857;1313;139201;-81
2022/10/27 16:52:30;;;;;;;45.00;27.80;;;;;;;15.46;99.72;101369.48;638931;1313;139455;-82
2022/10/27 17:07:38;;;;;;;106.80;54.40;;;;;;;15.21;100.00;101367.84;638339;1298;138908;-81
2022/10/27 17:22:44;;;;;;;107.70;58.60;;;;;;;14.94;100.00;101363.33;639339;1313;139788;-81
2022/10/27 17:37:47;;;;;;;93.70;58.50;;;;;;;14.66;100.00;101366.89;639771;1308;139733;-81
2022/10/27 17:52:51;;;;;;;217.90;111.80;;;;;;;14.50;100.00;101368.09;640160;1295;139257;-81
2022/10/27 18:07:54;;;;;;;108.30;65.00;;;;;;;14.31;100.00;101365.38;640015;1294;139465;-81
2022/10/27 18:22:58;;;;;;;77.80;46.50;;;;;;;14.04;100.00;101365.55;640014;1281;139653;-80
2022/10/27 18:38:01;;;;;;;82.80;50.70;;;;;;;13.95;100.00;101362.08;640062;1311;140232;-81
2022/10/27 18:53:04;;;;;;;84.60;45.90;;;;;;;13.81;100.00;101362.54;639314;1295;139626;-81
2022/10/27 19:08:08;;;;;;;181.40;80.40;;;;;;;13.54;100.00;101365.70;642418;1304;140992;-81
2022/10/27 19:23:11;;;;;;;166.30;82.00;;;;;;;13.15;100.00;101373.92;641104;1288;141016;-81
2022/10/27 19:38:17;;;;;;;114.30;57.20;;;;;;;12.89;100.00;101375.84;640761;1297;139499;-81
2022/10/27 19:53:20;;;;;;;100.70;52.40;;;;;;;12.88;100.00;101375.96;641977;1300;141182;-81
2022/10/27 20:08:23;;;;;;;130.70;58.60;;;;;;;12.86;100.00;101388.23;639935;1305;139756;-81
2022/10/27 20:23:30;;;;;;;69.00;38.20;;;;;;;12.71;100.00;101401.54;640830;1310;139554;-81
2022/10/27 20:38:35;;;;;;;53.90;31.80;;;;;;;12.61;100.00;101400.90;640645;1298;139119;-82
2022/10/27 20:53:40;;;;;;;174.90;76.60;;;;;;;12.51;100.00;101403.76;640321;1300;139266;-81
2022/10/27 21:08:43;;;;;;;142.80;62.30;;;;;;;12.21;100.00;101406.43;640407;1305;139640;-81
2022/10/27 21:23:46;;;;;;;170.00;76.00;;;;;;;12.08;100.00;101404.31;638839;1305;139250;-81
2022/10/27 21:38:50;;;;;;;150.90;68.30;;;;;;;11.96;100.00;101397.52;640075;1308;139237;-81
2022/10/27 21:53:55;;;;;;;63.30;35.80;;;;;;;11.94;100.00;101391.48;638572;1297;139625;-81
2022/10/27 22:09:04;;;;;;;124.90;55.70;;;;;;;12.12;100.00;101377.49;640101;1281;139124;-81
2022/10/27 22:24:08;;;;;;;79.70;42.40;;;;;;;12.04;100.00;101375.29;640078;1305;139918;-81
2022/10/27 22:39:12;;;;;;;75.00;42.20;;;;;;;12.00;100.00;101374.17;640379;1300;140067;-83
2022/10/27 22:54:15;;;;;;;73.40;35.00;;;;;;;12.16;100.00;101359.88;640727;1298;140309;-81
2022/10/27 23:09:21;;;;;;;89.40;42.20;;;;;;;12.30;100.00;101355.77;639759;1291;139264;-81
2022/10/27 23:24:24;;;;;;;146.30;51.10;;;;;;;12.37;100.00;101355.04;639493;1297;139029;-81
2022/10/27 23:39:27;;;;;;;122.90;50.70;;;;;;;12.50;100.00;101347.73;639084;1313;139443;-81
2022/10/27 23:54:30;;;;;;;143.90;60.30;;;;;;;12.62;100.00;101342.86;638826;1303;140226;-81
